createdAt,value
2023-03-04T00:00:33.290Z,24.25
2023-03-04T00:03:00.950Z,36.97
2023-03-04T00:05:28.523Z,30.15
2023-03-04T00:07:56.054Z,23.75
2023-03-04T00:10:25.450Z,19.40
2023-03-04T00:12:53.011Z,19.08
2023-03-04T00:15:20.516Z,18.35
2023-03-04T00:17:48.074Z,20.27
2023-03-04T00:20:15.706Z,19.33
2023-03-04T00:22:43.244Z,21.10
2023-03-04T00:25:10.827Z,18.60
2023-03-04T00:27:39.744Z,19.70
2023-03-04T00:30:09.074Z,20.45
2023-03-04T00:32:36.855Z,20.77
2023-03-04T00:35:04.814Z,21.20
2023-03-04T00:37:32.361Z,19.85
2023-03-04T00:39:59.889Z,19.85
2023-03-04T00:42:27.409Z,19.52
2023-03-04T00:44:56.220Z,20.40
2023-03-04T00:47:23.720Z,19.05
2023-03-04T00:49:51.257Z,21.50
2023-03-04T00:52:18.822Z,20.05
2023-03-04T00:54:46.351Z,21.17
2023-03-04T00:57:13.853Z,19.35
2023-03-04T00:59:43.776Z,19.73
2023-03-04T01:02:13.186Z,20.05
2023-03-04T01:04:41.855Z,20.70
2023-03-04T01:07:09.505Z,19.83
2023-03-04T01:09:36.993Z,21.48
2023-03-04T01:12:04.723Z,19.23
2023-03-04T01:14:32.276Z,20.13
2023-03-04T01:16:59.874Z,20.48
2023-03-04T01:19:28.946Z,19.67
2023-03-04T01:21:56.518Z,20.73
2023-03-04T01:24:24.061Z,19.63
2023-03-04T01:26:51.608Z,18.88
2023-03-04T01:29:19.120Z,18.77
2023-03-04T01:31:46.684Z,20.45
2023-03-04T01:34:14.443Z,20.75
2023-03-04T01:36:43.363Z,21.00
2023-03-04T01:39:10.898Z,20.42
2023-03-04T01:41:38.440Z,21.38
2023-03-04T01:44:06.966Z,19.75
2023-03-04T01:46:34.736Z,20.40
2023-03-04T01:49:02.430Z,20.30
2023-03-04T01:51:30.004Z,20.55
2023-03-04T01:53:58.922Z,22.73
2023-03-04T01:56:30.088Z,21.70
2023-03-04T01:59:09.738Z,20.90
2023-03-04T02:01:38.599Z,20.25
2023-03-04T02:04:07.697Z,21.20
2023-03-04T02:06:36.255Z,19.73
2023-03-04T02:09:05.796Z,20.67
2023-03-04T02:11:33.991Z,20.70
2023-03-04T02:14:01.596Z,19.27
2023-03-04T02:16:29.183Z,18.67
2023-03-04T02:18:57.010Z,19.33
2023-03-04T02:21:27.101Z,21.10
2023-03-04T02:24:04.316Z,20.42
2023-03-04T02:26:35.028Z,20.15
2023-03-04T02:29:03.881Z,21.13
2023-03-04T02:31:34.248Z,19.55
2023-03-04T02:34:04.607Z,19.25
2023-03-04T02:36:33.616Z,20.13
2023-03-04T02:39:06.635Z,20.15
2023-03-04T02:41:36.165Z,20.27
2023-03-04T02:44:03.763Z,20.15
2023-03-04T02:46:31.409Z,20.88
2023-03-04T02:48:58.990Z,21.63
2023-03-04T02:51:26.558Z,21.52
2023-03-04T02:53:54.153Z,22.10
2023-03-04T02:56:21.682Z,20.20
2023-03-04T02:58:50.596Z,19.80
2023-03-04T03:01:18.086Z,19.58
2023-03-04T03:03:45.580Z,21.27
2023-03-04T03:06:13.156Z,20.88
2023-03-04T03:08:40.680Z,20.20
2023-03-04T03:11:09.494Z,22.20
2023-03-04T03:13:37.148Z,22.15
2023-03-04T03:16:06.794Z,22.30
2023-03-04T03:18:34.351Z,20.88
2023-03-04T03:21:01.900Z,21.33
2023-03-04T03:23:29.423Z,22.45
2023-03-04T03:25:56.952Z,21.55
2023-03-04T03:28:24.450Z,22.08
2023-03-04T03:30:51.978Z,22.52
2023-03-04T03:33:20.831Z,23.23
2023-03-04T03:35:48.635Z,22.35
2023-03-04T03:38:16.444Z,22.45
2023-03-04T03:40:44.034Z,23.65
2023-03-04T03:43:11.928Z,22.13
2023-03-04T03:45:39.501Z,22.63
2023-03-04T03:48:07.370Z,23.48
2023-03-04T03:50:36.205Z,23.60
2023-03-04T03:53:03.846Z,24.13
2023-03-04T03:55:31.352Z,25.77
2023-03-04T03:57:58.956Z,25.55
2023-03-04T04:00:26.470Z,26.77
2023-03-04T04:02:55.608Z,27.33
2023-03-04T04:05:23.176Z,25.98
2023-03-04T04:07:54.071Z,24.85
2023-03-04T04:10:22.218Z,26.42
2023-03-04T04:12:49.807Z,25.23
2023-03-04T04:15:17.416Z,26.58
2023-03-04T04:17:44.996Z,25.55
2023-03-04T04:20:13.131Z,26.20
2023-03-04T04:22:40.634Z,25.63
2023-03-04T04:25:10.699Z,24.92
2023-03-04T04:27:38.413Z,25.23
2023-03-04T04:30:07.426Z,24.52
2023-03-04T04:32:35.152Z,27.00
2023-03-04T04:35:02.650Z,25.48
2023-03-04T04:37:30.216Z,26.05
2023-03-04T04:39:57.694Z,24.80
2023-03-04T04:42:26.922Z,25.02
2023-03-04T04:44:54.470Z,26.13
2023-03-04T04:47:21.970Z,25.15
2023-03-04T04:49:49.488Z,26.63
2023-03-04T04:52:17.026Z,26.50
2023-03-04T04:54:44.524Z,26.30
2023-03-04T04:57:12.055Z,26.60
2023-03-04T04:59:40.871Z,25.42
2023-03-04T05:02:08.382Z,24.30
2023-03-04T05:04:35.907Z,25.73
2023-03-04T05:07:03.470Z,25.77
2023-03-04T05:09:31.001Z,25.92
2023-03-04T05:11:58.569Z,27.55
2023-03-04T05:14:26.154Z,26.05
2023-03-04T05:16:55.101Z,25.08
2023-03-04T05:19:22.760Z,24.85
2023-03-04T05:21:50.458Z,24.75
2023-03-04T05:24:18.089Z,25.75
2023-03-04T05:26:45.630Z,23.17
2023-03-04T05:29:13.197Z,23.40
2023-03-04T05:31:40.809Z,24.10
2023-03-04T05:34:09.674Z,26.05
2023-03-04T05:36:37.247Z,23.25
2023-03-04T05:39:04.811Z,21.45
2023-03-04T05:41:32.304Z,23.33
2023-03-04T05:43:59.824Z,20.63
2023-03-04T05:46:27.447Z,23.60
2023-03-04T05:48:55.783Z,22.15
2023-03-04T05:51:24.780Z,21.45
2023-03-04T05:53:52.307Z,20.65
2023-03-04T05:56:21.438Z,20.10
2023-03-04T05:58:48.939Z,22.30
2023-03-04T06:01:16.976Z,20.80
2023-03-04T06:03:44.647Z,19.58
2023-03-04T06:06:12.473Z,22.88
2023-03-04T06:08:41.399Z,22.50
2023-03-04T06:11:09.377Z,24.67
2023-03-04T06:13:38.144Z,23.83
2023-03-04T06:16:06.377Z,24.95
2023-03-04T06:18:34.028Z,24.52
2023-03-04T06:21:03.408Z,24.38
2023-03-04T06:23:31.626Z,26.38
2023-03-04T06:26:02.267Z,23.30
2023-03-04T06:28:30.202Z,22.73
2023-03-04T06:30:58.913Z,23.75
2023-03-04T06:33:26.610Z,21.42
2023-03-04T06:35:56.432Z,23.52
2023-03-04T06:38:25.604Z,22.42
2023-03-04T06:40:55.977Z,23.25
2023-03-04T06:43:25.969Z,24.50
2023-03-04T06:45:53.838Z,26.20
2023-03-04T06:48:21.369Z,26.75
2023-03-04T06:50:48.881Z,27.77
2023-03-04T06:53:16.518Z,28.85
2023-03-04T06:55:44.070Z,28.00
2023-03-04T06:58:13.645Z,26.00
2023-03-04T07:00:42.512Z,30.73
2023-03-04T07:03:10.330Z,25.85
2023-03-04T07:05:37.850Z,26.60
2023-03-04T07:08:07.006Z,26.08
2023-03-04T07:10:34.603Z,22.95
2023-03-04T07:13:02.607Z,24.75
2023-03-04T07:15:30.617Z,23.17
2023-03-04T07:17:59.465Z,23.60
2023-03-04T07:20:27.005Z,21.88
2023-03-04T07:22:54.515Z,22.05
2023-03-04T07:25:22.021Z,18.90
2023-03-04T07:27:49.498Z,19.92
2023-03-04T07:30:17.547Z,19.67
2023-03-04T07:32:45.107Z,18.40
2023-03-04T07:35:13.953Z,17.67
2023-03-04T07:37:41.585Z,17.00
2023-03-04T07:40:10.645Z,18.67
2023-03-04T07:42:38.196Z,17.98
2023-03-04T07:45:07.933Z,16.35
2023-03-04T07:47:37.700Z,17.23
2023-03-04T07:50:05.924Z,16.52
2023-03-04T07:52:34.744Z,17.63
2023-03-04T07:55:02.781Z,14.63
2023-03-04T07:57:30.330Z,14.90
2023-03-04T07:59:57.863Z,15.18
2023-03-04T08:02:25.437Z,14.30
2023-03-04T08:04:52.937Z,14.57
2023-03-04T08:07:20.464Z,15.43
2023-03-04T08:09:49.732Z,14.60
2023-03-04T08:12:17.258Z,14.95
2023-03-04T08:14:44.850Z,15.57
2023-03-04T08:17:14.758Z,15.50
2023-03-04T08:19:42.266Z,15.60
2023-03-04T08:22:09.942Z,14.93
2023-03-04T08:24:37.589Z,14.13
2023-03-04T08:27:06.676Z,13.90
2023-03-04T08:29:34.242Z,15.18
2023-03-04T08:32:01.926Z,14.77
2023-03-04T08:34:29.923Z,15.65
2023-03-04T08:36:57.442Z,13.23
2023-03-04T08:39:24.970Z,14.27
2023-03-04T08:41:52.548Z,13.18
2023-03-04T08:44:21.366Z,13.60
2023-03-04T08:46:48.905Z,14.05
2023-03-04T08:49:16.461Z,14.93
2023-03-04T08:51:45.226Z,13.88
2023-03-04T08:54:13.092Z,13.05
2023-03-04T08:56:41.651Z,13.23
2023-03-04T08:59:09.153Z,12.52
2023-03-04T09:01:38.103Z,11.88
2023-03-04T09:04:05.945Z,12.15
2023-03-04T09:06:33.515Z,11.52
2023-03-04T09:09:01.037Z,12.27
2023-03-04T09:11:28.623Z,12.95
2023-03-04T09:13:56.123Z,14.05
2023-03-04T09:16:24.304Z,12.68
2023-03-04T09:18:53.254Z,12.70
2023-03-04T09:21:20.912Z,13.38
2023-03-04T09:23:48.401Z,13.80
2023-03-04T09:26:18.566Z,12.27
2023-03-04T09:28:46.087Z,11.60
2023-03-04T09:31:14.702Z,12.73
2023-03-04T09:33:43.120Z,13.15
2023-03-04T09:36:14.603Z,13.07
2023-03-04T09:38:43.000Z,12.00
2023-03-04T09:41:15.343Z,12.88
2023-03-04T09:43:45.162Z,13.05
2023-03-04T09:46:16.138Z,12.82
2023-03-04T09:48:47.566Z,13.43
2023-03-04T09:51:41.601Z,12.95
2023-03-04T09:54:12.063Z,14.45
2023-03-04T09:56:41.295Z,13.80
2023-03-04T09:59:18.312Z,13.57
2023-03-04T10:01:50.754Z,13.20
2023-03-04T10:04:27.582Z,15.23
2023-03-04T10:06:57.479Z,13.05
2023-03-04T10:09:29.453Z,13.65
2023-03-04T10:12:03.997Z,15.82
2023-03-04T10:14:36.544Z,14.90
2023-03-04T10:17:11.170Z,13.52
2023-03-04T10:19:50.167Z,15.63
2023-03-04T10:22:27.676Z,13.85
2023-03-04T10:24:57.937Z,13.82
2023-03-04T10:27:27.001Z,16.02
2023-03-04T10:29:54.498Z,14.73
2023-03-04T10:32:22.206Z,14.55
2023-03-04T10:34:49.795Z,15.30
2023-03-04T10:37:18.683Z,14.38
2023-03-04T10:39:49.331Z,14.77
2023-03-04T10:42:37.524Z,14.02
2023-03-04T10:45:20.096Z,15.52
2023-03-04T10:47:53.599Z,14.93
2023-03-04T10:50:24.184Z,17.30
2023-03-04T10:52:55.630Z,17.75
2023-03-04T10:55:25.790Z,17.63
2023-03-04T10:57:57.867Z,15.73
2023-03-04T11:00:29.717Z,15.05
2023-03-04T11:03:25.912Z,16.33
2023-03-04T11:06:06.761Z,16.08
2023-03-04T11:08:35.673Z,16.90
2023-03-04T11:11:03.257Z,15.23
2023-03-04T11:13:32.552Z,14.00
2023-03-04T11:16:03.107Z,15.75
2023-03-04T11:18:41.745Z,15.15
2023-03-04T11:21:18.067Z,13.32
2023-03-04T11:23:51.667Z,16.10
2023-03-04T11:26:22.534Z,14.75
2023-03-04T11:28:55.263Z,14.50
2023-03-04T11:31:28.857Z,12.98
2023-03-04T11:34:02.331Z,14.02
2023-03-04T11:36:37.026Z,13.18
2023-03-04T11:39:15.174Z,13.52
2023-03-04T11:41:48.936Z,12.63
2023-03-04T11:44:16.497Z,14.45
2023-03-04T11:46:55.080Z,13.65
2023-03-04T11:49:42.807Z,14.30
2023-03-04T11:52:22.998Z,16.90
2023-03-04T11:55:11.673Z,16.52
2023-03-04T11:57:50.973Z,16.52
2023-03-04T12:00:33.090Z,14.80
2023-03-04T12:03:46.154Z,16.83
2023-03-04T12:06:22.287Z,16.65
2023-03-04T12:09:01.671Z,15.45
2023-03-04T12:11:42.691Z,14.00
2023-03-04T12:14:23.029Z,12.43
2023-03-04T12:17:19.145Z,18.60
2023-03-04T12:20:17.065Z,15.15
2023-03-04T12:22:47.586Z,15.65
2023-03-04T12:25:41.086Z,14.23
2023-03-04T12:28:25.722Z,15.23
2023-03-04T12:31:07.559Z,14.48
2023-03-04T12:33:46.276Z,14.52
2023-03-04T12:36:20.432Z,15.20
2023-03-04T12:39:01.022Z,13.73
2023-03-04T12:41:39.523Z,14.38
2023-03-04T12:44:18.174Z,14.73
2023-03-04T12:47:11.593Z,15.32
2023-03-04T12:49:51.454Z,14.15
2023-03-04T12:52:27.327Z,13.75
2023-03-04T12:54:58.967Z,14.20
2023-03-04T12:57:31.457Z,14.32
2023-03-04T13:00:10.286Z,14.88
2023-03-04T13:03:06.453Z,14.25
2023-03-04T13:05:52.576Z,15.05
2023-03-04T13:08:33.073Z,15.18
2023-03-04T13:11:04.847Z,14.75
2023-03-04T13:13:38.250Z,16.27
2023-03-04T13:19:39.599Z,14.27
2023-03-04T13:22:34.687Z,15.15
2023-03-04T13:25:34.404Z,16.00
2023-03-04T13:28:26.672Z,14.90
2023-03-04T13:31:26.520Z,14.30
2023-03-04T13:34:04.427Z,16.33
2023-03-04T13:37:01.192Z,15.25
2023-03-04T13:39:34.111Z,14.55
2023-03-04T13:42:03.252Z,15.18
2023-03-04T13:44:59.564Z,15.80
2023-03-04T13:48:22.605Z,15.15
2023-03-04T13:51:40.611Z,14.23
2023-03-04T13:54:15.026Z,15.43
2023-03-04T13:56:46.386Z,16.80
2023-03-04T13:59:26.914Z,16.77
2023-03-04T14:02:03.324Z,15.52
2023-03-04T14:04:36.181Z,16.02
2023-03-04T14:10:00.961Z,16.70
2023-03-04T14:12:30.929Z,17.05
2023-03-04T14:15:01.161Z,16.75
2023-03-04T14:17:31.889Z,16.33
2023-03-04T14:20:03.146Z,18.27
2023-03-04T14:22:34.894Z,17.70
2023-03-04T14:25:04.780Z,16.90
2023-03-04T14:27:36.205Z,17.98
2023-03-04T14:30:08.194Z,16.73
2023-03-04T14:32:36.296Z,16.60
2023-03-04T14:35:06.839Z,19.05
2023-03-04T14:37:44.657Z,16.80
2023-03-04T14:40:27.500Z,17.15
2023-03-04T14:45:52.903Z,18.08
2023-03-04T14:48:26.309Z,18.60
2023-03-04T14:51:27.139Z,18.77
2023-03-04T14:57:32.507Z,16.65
2023-03-04T15:03:56.320Z,16.20
2023-03-04T15:06:30.014Z,16.63
2023-03-04T15:09:39.251Z,19.02
2023-03-04T15:12:30.598Z,18.00
2023-03-04T15:15:16.288Z,17.55
2023-03-04T15:17:45.711Z,19.40
2023-03-04T15:20:24.132Z,18.13
2023-03-04T15:23:07.561Z,20.00
2023-03-04T15:25:37.122Z,18.73
2023-03-04T15:28:05.441Z,17.80
2023-03-04T15:30:35.195Z,17.50
2023-03-04T15:33:07.760Z,18.23
2023-03-04T15:35:35.422Z,15.35
2023-03-04T15:38:04.176Z,15.88
2023-03-04T15:58:17.799Z,16.33
2023-03-04T16:00:45.527Z,16.55
2023-03-04T16:03:17.962Z,17.98
2023-03-04T16:05:48.096Z,16.77
2023-03-04T16:08:18.119Z,17.85
2023-03-04T16:10:50.802Z,18.02
2023-03-04T16:13:20.370Z,19.20
2023-03-04T16:15:51.443Z,17.55
2023-03-04T16:18:19.653Z,19.13
2023-03-04T16:20:48.777Z,17.88
2023-03-04T16:23:19.941Z,17.70
2023-03-04T16:25:52.261Z,16.70
2023-03-04T16:28:26.989Z,17.60
2023-03-04T16:30:57.207Z,17.88
2023-03-04T16:33:24.969Z,17.98
2023-03-04T16:35:53.034Z,18.08
2023-03-04T16:38:28.068Z,19.23
2023-03-04T16:40:58.767Z,19.05
2023-03-04T16:43:27.014Z,17.83
2023-03-04T16:45:57.582Z,18.40
2023-03-04T16:48:25.743Z,18.00
2023-03-04T16:50:53.363Z,18.35
2023-03-04T16:53:32.516Z,18.00
2023-03-04T16:56:05.616Z,20.13
2023-03-04T16:58:33.688Z,18.92
2023-03-04T17:01:02.024Z,17.70
2023-03-04T17:03:29.803Z,19.58
2023-03-04T17:05:57.623Z,19.02
2023-03-04T17:08:36.281Z,19.42
2023-03-04T17:11:11.261Z,18.33
2023-03-04T17:13:44.244Z,18.05
2023-03-04T17:16:13.134Z,17.25
2023-03-04T17:18:58.021Z,18.92
2023-03-04T17:21:29.609Z,17.75
2023-03-04T17:24:04.264Z,16.90
2023-03-04T17:26:38.106Z,18.35
2023-03-04T17:29:08.621Z,17.63
2023-03-04T17:31:42.936Z,18.45
2023-03-04T17:34:14.100Z,19.10
2023-03-04T17:39:28.497Z,17.10
2023-03-04T17:42:07.654Z,19.75
2023-03-04T17:44:39.360Z,19.42
2023-03-04T17:47:12.887Z,17.95
2023-03-04T17:49:47.050Z,20.58
2023-03-04T17:52:25.803Z,18.05
2023-03-04T17:54:57.450Z,17.65
2023-03-04T17:57:33.318Z,17.85
2023-03-04T18:00:01.471Z,17.33
2023-03-04T18:02:35.471Z,17.73
2023-03-04T18:05:07.635Z,18.17
2023-03-04T18:07:43.727Z,18.13
2023-03-04T18:10:14.405Z,17.45
2023-03-04T18:12:56.761Z,18.63
2023-03-04T18:35:04.497Z,18.20
2023-03-04T18:37:32.595Z,19.73
2023-03-04T18:40:00.465Z,18.90
2023-03-04T18:42:30.755Z,18.25
2023-03-04T18:45:01.737Z,17.73
2023-03-04T18:47:33.809Z,20.52
2023-03-04T18:50:05.227Z,18.63
2023-03-04T18:52:33.028Z,19.10
2023-03-04T18:55:01.395Z,17.65
2023-03-04T18:57:29.228Z,17.90
2023-03-04T19:00:00.289Z,18.88
2023-03-04T19:02:32.686Z,18.58
2023-03-04T19:05:07.053Z,19.02
2023-03-04T19:07:34.581Z,19.13
2023-03-04T19:10:02.275Z,19.27
2023-03-04T19:12:30.170Z,19.52
2023-03-04T19:14:57.699Z,18.33
2023-03-04T19:17:25.631Z,18.92
2023-03-04T19:19:53.116Z,18.17
2023-03-04T19:22:21.960Z,17.98
2023-03-04T19:24:49.600Z,20.33
2023-03-04T19:27:17.142Z,18.20
2023-03-04T19:29:44.796Z,18.10
2023-03-04T19:32:12.376Z,18.60
2023-03-04T19:34:40.009Z,18.23
2023-03-04T19:37:07.584Z,17.98
2023-03-04T19:39:36.513Z,17.85
2023-03-04T19:42:04.186Z,17.65
2023-03-04T19:44:32.053Z,18.25
2023-03-04T19:46:59.993Z,17.17
2023-03-04T19:49:27.587Z,16.52
2023-03-04T19:51:55.136Z,16.23
2023-03-04T19:54:22.753Z,16.55
2023-03-04T19:56:51.640Z,17.73
2023-03-04T19:59:19.465Z,17.48
2023-03-04T20:01:51.682Z,15.65
2023-03-04T20:04:21.027Z,16.95
2023-03-04T20:06:50.909Z,16.58
2023-03-04T20:09:19.825Z,15.43
2023-03-04T20:11:57.741Z,16.75
2023-03-04T20:14:28.349Z,15.73
2023-03-04T20:17:00.642Z,16.10
2023-03-04T20:19:28.418Z,16.55
2023-03-04T20:21:57.781Z,15.32
2023-03-04T20:24:25.882Z,15.07
2023-03-04T20:26:53.782Z,16.83
2023-03-04T20:29:21.319Z,15.82
2023-03-04T20:31:50.217Z,15.95
2023-03-04T20:34:17.791Z,15.73
2023-03-04T20:36:45.605Z,16.75
2023-03-04T20:39:27.433Z,16.13
2023-03-04T20:41:56.227Z,16.75
2023-03-04T20:44:23.813Z,16.67
2023-03-04T20:46:53.084Z,16.50
2023-03-04T20:49:23.910Z,16.05
2023-03-04T20:51:51.809Z,18.38
2023-03-04T20:54:19.617Z,16.67
2023-03-04T20:56:47.719Z,17.75
2023-03-04T20:59:15.729Z,17.73
2023-03-04T21:01:47.780Z,17.58
2023-03-04T21:04:17.568Z,17.25
2023-03-04T21:06:47.295Z,18.30
2023-03-04T21:09:16.694Z,17.63
2023-03-04T21:11:44.736Z,16.73
2023-03-04T21:14:15.381Z,17.35
2023-03-04T21:16:43.500Z,18.20
2023-03-04T21:19:17.746Z,17.35
2023-03-04T21:21:45.793Z,17.92
2023-03-04T21:24:15.561Z,19.40
2023-03-04T21:26:45.217Z,18.55
2023-03-04T21:29:13.155Z,17.85
2023-03-04T21:31:42.612Z,17.38
2023-03-04T21:34:18.398Z,19.20
2023-03-04T21:36:46.047Z,17.10
2023-03-04T21:39:17.299Z,17.17
2023-03-04T21:41:44.907Z,18.48
2023-03-04T21:44:22.659Z,17.42
2023-03-04T21:46:56.596Z,17.65
2023-03-04T21:49:25.932Z,17.65
2023-03-04T21:51:53.469Z,17.25
2023-03-04T21:54:21.421Z,18.52
2023-03-04T21:56:50.175Z,17.35
2023-03-04T21:59:18.378Z,17.65
2023-03-04T22:01:46.038Z,18.35
2023-03-04T22:04:13.668Z,20.10
2023-03-04T22:06:42.611Z,18.30
2023-03-04T22:09:12.146Z,19.63
2023-03-04T22:11:39.842Z,18.85
2023-03-04T22:14:07.438Z,17.52
2023-03-04T22:16:48.869Z,18.73
2023-03-04T22:19:20.504Z,20.80
2023-03-04T22:21:49.473Z,19.15
2023-03-04T22:24:17.049Z,18.15
2023-03-04T22:26:44.749Z,20.05
2023-03-04T22:29:12.343Z,18.80
2023-03-04T22:31:40.249Z,19.08
2023-03-04T22:34:09.402Z,18.90
2023-03-04T22:36:39.557Z,18.65
2023-03-04T22:39:10.336Z,17.23
2023-03-04T22:41:37.974Z,19.40
2023-03-04T22:44:06.838Z,18.52
2023-03-04T22:46:37.979Z,18.80
2023-03-04T22:49:09.415Z,19.23
2023-03-04T22:51:37.486Z,19.10
2023-03-04T22:54:05.294Z,19.10
2023-03-04T22:56:36.364Z,19.90
2023-03-04T22:59:03.890Z,21.63
2023-03-04T23:01:31.452Z,20.08
2023-03-04T23:03:59.207Z,20.85
2023-03-04T23:06:27.787Z,21.15
2023-03-04T23:08:55.358Z,20.83
2023-03-04T23:11:26.380Z,21.25
2023-03-04T23:13:55.757Z,20.83
2023-03-04T23:16:28.562Z,19.45
2023-03-04T23:21:28.129Z,19.05
2023-03-04T23:23:56.246Z,18.00
2023-03-04T23:26:26.137Z,19.27
2023-03-04T23:28:56.804Z,20.35
2023-03-04T23:31:25.543Z,21.27
2023-03-04T23:33:57.070Z,18.67
2023-03-04T23:36:26.809Z,20.13
2023-03-04T23:38:54.906Z,18.77
2023-03-04T23:41:25.231Z,18.80
2023-03-04T23:43:55.307Z,19.40
2023-03-04T23:46:23.584Z,18.00
2023-03-04T23:48:51.325Z,18.90
2023-03-04T23:51:20.117Z,18.25
2023-03-04T23:53:48.350Z,16.58
2023-03-04T23:56:17.981Z,18.58
2023-03-04T23:58:46.103Z,16.85
